Aérodrome :
LOGIN :

S'inscrire | Disclaimer

   EN    FR    IT 

 










Légende :    VFR   VFR Marginal   IFR   IFR Intensif   IFR Très Intensif
Visi : 
Plafond : 
>= 8 km
>= 3000ft
5 à 8 km
1000 à 3000 ft
1500m à 5 km
500 à 1000 ft
800 à 1500m
200 à 500 ft
< 800m
< 200 ft
Symboles :   Orages  Brouillard  Fortes neiges  Fortes précipitations  Vent > 20 kt
SIGMETs :   Divers  Orages  Givrage  Turbulence  Onde Orograph.  Cendres Volcan.







- Altitude de l'aérodrome : 84 ft
- Voir les cartes d'approche


LFBC - Cazaux

DERNIER METAR :
  • 172100Z AUTO 35005KT CAVOK 07/04 Q1024

METARs EXPIRÉS :
  • 172030Z AUTO 36005KT CAVOK 08/05 Q1023
  • 172000Z AUTO 36005KT CAVOK 08/05 Q1023
  • 171930Z AUTO 36005KT CAVOK 08/06 Q1023
  • 171900Z AUTO 36005KT CAVOK 09/07 Q1023
  • 171830Z AUTO 35004KT CAVOK 09/07 Q1023

TAF TAF LFBC
Valide du 17 à 15h jusqu'au 18 à 15h UTC


171400Z 1715/1815 33005KT CAVOK
BECMG 1723/1801 0500 FG VV///
BECMG 1807/1809 9999 NSW FEW030
Pas de NOTAMs connus pour ce terrain.



MET'MAP, la Météo Aéronautique d'un coup d'oeil ! - Copyright ORBIFLY Décembre 2007 - Disclaimer

ORBIFLY MET'MAP TEAM :

Programmation & Développement : Alexandra Zaïnal
Conception & Développement : Baudouin d'Aumeries
Co-Programmation & Développement : Marc-Olivier Méhu
Soutien technique & logistique : Manuel Goepfert

Contact : metmap@orbifly.com




SOURCES & CREDITS :

   NOAA